Kezdőlap
METAR-TAF:

METAR-TAF

Repülőterek :

Leh, India

földrajzi szélesség: 34-08-09N, földrajzi hosszúság: 077-32-47E, magasság: 3256 m

METAR: hiányzik

Idő: 13:52 (08:22 UTC)

Előrejelzés

A jelentés 4 órával és 52 perccel ezelõtt készült, 03:30 UTC
Az előrejelzés 24-én 06 óra UTC és 24-én 18 óra UTC között érvényes
Nyugat-északnyugati szél 8 kt
Látótávolság: 6000 m
Szórványos felhőzet 7000 lábon
Szórványos felhőzet 15000 lábon
24-én 08 óra UTC és 24-én 12 óra UTC között ideiglenes
Nyugat-északnyugati szél 10 kt széllökések: 20 kt

TAF: VILH 240330Z 2406/2418 30008KT 6000 SCT070 SCT150 TEMPO 2408/2412 29010G20KT

Meteorológiai megfigyelések és előrejelzések több, mint 4000 repülőtéren (METAR és TAF jelentéseket).

A térképen piros és sárga pontok jelzik az elérhető meteorológiai állomásokat.

Mozgassa az egeret a pont fölött, hogy megjelenjen az állomás neve.

Azután kattintson az időjárási megfigyelések és előrejelzések megtekintéséhez.

A térkép megváltoztatása: kattintson a fekete keresztel jelölt zöld gombra ráközelítéshez, a vonallal jelölt zöld gombra távolításhoz, vagy a zöld nyilakra a szomszédos térképek eléréséhez.


METAR-TAF: